sensor_id;sensor_type;location;lat;lon;timestamp;temperature;humidity
60293;DHT22;52402;52.670;6.750;2022-07-01T00:01:22;15.40;99.90
60293;DHT22;52402;52.670;6.750;2022-07-01T00:03:48;15.40;99.90
60293;DHT22;52402;52.670;6.750;2022-07-01T00:06:19;15.40;99.90
60293;DHT22;52402;52.670;6.750;2022-07-01T00:08:45;15.40;99.90
60293;DHT22;52402;52.670;6.750;2022-07-01T00:11:12;15.40;99.90
60293;DHT22;52402;52.670;6.750;2022-07-01T00:13:37;15.40;99.90
60293;DHT22;52402;52.670;6.750;2022-07-01T00:16:03;15.40;99.90
60293;DHT22;52402;52.670;6.750;2022-07-01T00:18:29;15.40;99.90
60293;DHT22;52402;52.670;6.750;2022-07-01T00:20:55;15.40;99.90
60293;DHT22;52402;52.670;6.750;2022-07-01T00:23:21;15.40;99.90
60293;DHT22;52402;52.670;6.750;2022-07-01T00:25:47;15.30;99.90
60293;DHT22;52402;52.670;6.750;2022-07-01T00:28:12;15.30;99.90
60293;DHT22;52402;52.670;6.750;2022-07-01T00:30:38;15.40;99.90
60293;DHT22;52402;52.670;6.750;2022-07-01T00:33:04;15.40;99.90
60293;DHT22;52402;52.670;6.750;2022-07-01T00:35:30;15.30;99.90
60293;DHT22;52402;52.670;6.750;2022-07-01T00:37:56;15.30;99.90
60293;DHT22;52402;52.670;6.750;2022-07-01T00:40:23;15.30;99.90
60293;DHT22;52402;52.670;6.750;2022-07-01T00:42:48;15.30;99.90
60293;DHT22;52402;52.670;6.750;2022-07-01T00:45:14;15.30;99.90
60293;DHT22;52402;52.670;6.750;2022-07-01T00:47:41;15.30;99.90
60293;DHT22;52402;52.670;6.750;2022-07-01T00:50:09;15.30;99.90
60293;DHT22;52402;52.670;6.750;2022-07-01T00:52:36;15.30;99.90
60293;DHT22;52402;52.670;6.750;2022-07-01T00:55:10;15.30;99.90
60293;DHT22;52402;52.670;6.750;2022-07-01T00:57:40;15.20;99.90
60293;DHT22;52402;52.670;6.750;2022-07-01T01:00:14;15.20;99.90
60293;DHT22;52402;52.670;6.750;2022-07-01T01:02:41;15.20;99.90
60293;DHT22;52402;52.670;6.750;2022-07-01T01:05:08;15.20;99.90
60293;DHT22;52402;52.670;6.750;2022-07-01T01:07:34;15.20;99.90
60293;DHT22;52402;52.670;6.750;2022-07-01T01:10:02;15.20;99.90
60293;DHT22;52402;52.670;6.750;2022-07-01T01:12:28;15.10;99.90
60293;DHT22;52402;52.670;6.750;2022-07-01T01:14:58;15.10;99.90
60293;DHT22;52402;52.670;6.750;2022-07-01T01:17:24;15.10;99.90
60293;DHT22;52402;52.670;6.750;2022-07-01T01:19:51;15.10;99.90
60293;DHT22;52402;52.670;6.750;2022-07-01T01:22:19;15.20;99.90
60293;DHT22;52402;52.670;6.750;2022-07-01T01:24:46;15.20;99.90
60293;DHT22;52402;52.670;6.750;2022-07-01T01:27:13;15.20;99.90
60293;DHT22;52402;52.670;6.750;2022-07-01T01:29:39;15.20;99.90
60293;DHT22;52402;52.670;6.750;2022-07-01T01:32:06;15.20;99.90
60293;DHT22;52402;52.670;6.750;2022-07-01T01:34:35;15.20;99.90
60293;DHT22;52402;52.670;6.750;2022-07-01T01:37:02;15.30;99.90
60293;DHT22;52402;52.670;6.750;2022-07-01T01:39:28;15.30;99.90
60293;DHT22;52402;52.670;6.750;2022-07-01T01:41:54;15.30;99.90
60293;DHT22;52402;52.670;6.750;2022-07-01T01:44:19;15.30;99.90
60293;DHT22;52402;52.670;6.750;2022-07-01T01:46:45;15.30;99.90
60293;DHT22;52402;52.670;6.750;2022-07-01T01:49:11;15.30;99.90
60293;DHT22;52402;52.670;6.750;2022-07-01T01:51:37;15.40;99.90
60293;DHT22;52402;52.670;6.750;2022-07-01T01:54:03;15.40;99.90
60293;DHT22;52402;52.670;6.750;2022-07-01T01:56:29;15.40;99.90
60293;DHT22;52402;52.670;6.750;2022-07-01T01:58:56;15.30;99.90
60293;DHT22;52402;52.670;6.750;2022-07-01T02:01:22;15.30;99.90
60293;DHT22;52402;52.670;6.750;2022-07-01T02:03:48;15.30;99.90
60293;DHT22;52402;52.670;6.750;2022-07-01T02:06:17;15.30;99.90
60293;DHT22;52402;52.670;6.750;2022-07-01T02:08:43;15.30;99.90
60293;DHT22;52402;52.670;6.750;2022-07-01T02:11:08;15.30;99.90
60293;DHT22;52402;52.670;6.750;2022-07-01T02:13:35;15.20;99.90
60293;DHT22;52402;52.670;6.750;2022-07-01T02:16:01;15.20;99.90
60293;DHT22;52402;52.670;6.750;2022-07-01T02:18:27;15.30;99.90
60293;DHT22;52402;52.670;6.750;2022-07-01T02:20:53;15.20;99.90
60293;DHT22;52402;52.670;6.750;2022-07-01T02:23:19;15.30;99.90
60293;DHT22;52402;52.670;6.750;2022-07-01T02:25:45;15.30;99.90
60293;DHT22;52402;52.670;6.750;2022-07-01T02:28:14;15.20;99.90
60293;DHT22;52402;52.670;6.750;2022-07-01T02:30:40;15.20;99.90
60293;DHT22;52402;52.670;6.750;2022-07-01T02:33:06;15.20;99.90
60293;DHT22;52402;52.670;6.750;2022-07-01T02:35:34;15.10;99.90
60293;DHT22;52402;52.670;6.750;2022-07-01T02:37:59;15.20;99.90
60293;DHT22;52402;52.670;6.750;2022-07-01T02:40:25;15.10;99.90
60293;DHT22;52402;52.670;6.750;2022-07-01T02:42:51;15.10;99.90
60293;DHT22;52402;52.670;6.750;2022-07-01T02:45:16;15.10;99.90
60293;DHT22;52402;52.670;6.750;2022-07-01T02:47:42;15.00;99.90
60293;DHT22;52402;52.670;6.750;2022-07-01T02:50:09;15.00;99.90
60293;DHT22;52402;52.670;6.750;2022-07-01T02:52:36;15.00;99.90
60293;DHT22;52402;52.670;6.750;2022-07-01T02:55:19;15.10;99.90
60293;DHT22;52402;52.670;6.750;2022-07-01T02:57:45;15.00;99.90
60293;DHT22;52402;52.670;6.750;2022-07-01T03:00:13;15.00;99.90
60293;DHT22;52402;52.670;6.750;2022-07-01T03:02:39;15.00;99.90
60293;DHT22;52402;52.670;6.750;2022-07-01T03:05:06;14.90;99.90
60293;DHT22;52402;52.670;6.750;2022-07-01T03:07:32;14.90;99.90
60293;DHT22;52402;52.670;6.750;2022-07-01T03:09:57;14.80;99.90
60293;DHT22;52402;52.670;6.750;2022-07-01T03:12:23;14.80;99.90
60293;DHT22;52402;52.670;6.750;2022-07-01T03:14:59;14.80;99.90
60293;DHT22;52402;52.670;6.750;2022-07-01T03:17:30;14.80;99.90
60293;DHT22;52402;52.670;6.750;2022-07-01T03:19:57;14.70;99.90
60293;DHT22;52402;52.670;6.750;2022-07-01T03:22:28;14.70;99.90
60293;DHT22;52402;52.670;6.750;2022-07-01T03:24:54;14.70;99.90
60293;DHT22;52402;52.670;6.750;2022-07-01T03:27:20;14.70;99.90
60293;DHT22;52402;52.670;6.750;2022-07-01T03:29:46;14.70;99.90
60293;DHT22;52402;52.670;6.750;2022-07-01T03:32:12;14.70;99.90
60293;DHT22;52402;52.670;6.750;2022-07-01T03:34:42;14.70;99.90
60293;DHT22;52402;52.670;6.750;2022-07-01T03:37:10;14.70;99.90
60293;DHT22;52402;52.670;6.750;2022-07-01T03:39:37;14.70;99.90
60293;DHT22;52402;52.670;6.750;2022-07-01T03:42:04;14.70;99.90
60293;DHT22;52402;52.670;6.750;2022-07-01T03:44:30;14.70;99.90
60293;DHT22;52402;52.670;6.750;2022-07-01T03:46:56;14.70;99.90
60293;DHT22;52402;52.670;6.750;2022-07-01T03:49:22;14.70;99.90
60293;DHT22;52402;52.670;6.750;2022-07-01T03:51:48;14.70;99.90
60293;DHT22;52402;52.670;6.750;2022-07-01T03:54:14;14.70;99.90
60293;DHT22;52402;52.670;6.750;2022-07-01T03:57:02;14.70;99.90
60293;DHT22;52402;52.670;6.750;2022-07-01T03:59:29;14.70;99.90
60293;DHT22;52402;52.670;6.750;2022-07-01T04:01:56;14.70;99.90
60293;DHT22;52402;52.670;6.750;2022-07-01T04:04:22;14.70;99.90
60293;DHT22;52402;52.670;6.750;2022-07-01T04:06:52;14.70;99.90
60293;DHT22;52402;52.670;6.750;2022-07-01T04:09:18;14.70;99.90
60293;DHT22;52402;52.670;6.750;2022-07-01T04:11:45;14.70;99.90
60293;DHT22;52402;52.670;6.750;2022-07-01T04:14:12;14.70;99.90
60293;DHT22;52402;52.670;6.750;2022-07-01T04:16:38;14.70;99.90
60293;DHT22;52402;52.670;6.750;2022-07-01T04:19:04;14.70;99.90
60293;DHT22;52402;52.670;6.750;2022-07-01T04:21:30;14.70;99.90
60293;DHT22;52402;52.670;6.750;2022-07-01T04:24:14;14.70;99.90
60293;DHT22;52402;52.670;6.750;2022-07-01T04:26:41;14.70;99.90
60293;DHT22;52402;52.670;6.750;2022-07-01T04:29:07;14.70;99.90
60293;DHT22;52402;52.670;6.750;2022-07-01T04:31:36;14.70;99.90
60293;DHT22;52402;52.670;6.750;2022-07-01T04:34:03;14.70;99.90
60293;DHT22;52402;52.670;6.750;2022-07-01T04:36:29;14.70;99.90
60293;DHT22;52402;52.670;6.750;2022-07-01T04:38:55;14.70;99.90
60293;DHT22;52402;52.670;6.750;2022-07-01T04:41:21;14.80;99.90
60293;DHT22;52402;52.670;6.750;2022-07-01T04:44:05;14.80;99.90
60293;DHT22;52402;52.670;6.750;2022-07-01T04:46:31;14.70;99.90
60293;DHT22;52402;52.670;6.750;2022-07-01T04:48:56;14.70;99.90
60293;DHT22;52402;52.670;6.750;2022-07-01T04:51:22;14.70;99.90
60293;DHT22;52402;52.670;6.750;2022-07-01T04:53:48;14.60;99.90
60293;DHT22;52402;52.670;6.750;2022-07-01T04:56:14;14.70;99.90
60293;DHT22;52402;52.670;6.750;2022-07-01T04:58:40;14.70;99.90
60293;DHT22;52402;52.670;6.750;2022-07-01T05:01:05;14.70;99.90
60293;DHT22;52402;52.670;6.750;2022-07-01T05:03:31;14.70;99.90
60293;DHT22;52402;52.670;6.750;2022-07-01T05:05:57;14.70;99.90
60293;DHT22;52402;52.670;6.750;2022-07-01T05:08:23;14.70;99.90
60293;DHT22;52402;52.670;6.750;2022-07-01T05:10:49;14.70;99.90
60293;DHT22;52402;52.670;6.750;2022-07-01T05:13:14;14.80;99.90
60293;DHT22;52402;52.670;6.750;2022-07-01T05:15:40;14.80;99.90
60293;DHT22;52402;52.670;6.750;2022-07-01T05:18:06;14.80;99.90
60293;DHT22;52402;52.670;6.750;2022-07-01T05:20:50;14.90;99.90
60293;DHT22;52402;52.670;6.750;2022-07-01T05:23:34;14.80;99.90
60293;DHT22;52402;52.670;6.750;2022-07-01T05:26:01;14.90;99.90
60293;DHT22;52402;52.670;6.750;2022-07-01T05:28:27;14.90;99.90
60293;DHT22;52402;52.670;6.750;2022-07-01T05:30:52;14.90;99.90
60293;DHT22;52402;52.670;6.750;2022-07-01T05:33:18;14.90;99.90
60293;DHT22;52402;52.670;6.750;2022-07-01T05:35:47;14.90;99.90
60293;DHT22;52402;52.670;6.750;2022-07-01T05:38:15;14.90;99.90
60293;DHT22;52402;52.670;6.750;2022-07-01T05:40:42;14.90;99.90
60293;DHT22;52402;52.670;6.750;2022-07-01T05:43:19;14.90;99.90
60293;DHT22;52402;52.670;6.750;2022-07-01T05:45:45;15.00;99.90
60293;DHT22;52402;52.670;6.750;2022-07-01T05:48:11;15.00;99.90
60293;DHT22;52402;52.670;6.750;2022-07-01T05:50:37;14.90;99.90
60293;DHT22;52402;52.670;6.750;2022-07-01T05:53:02;15.00;99.90
60293;DHT22;52402;52.670;6.750;2022-07-01T05:55:28;15.00;99.90
60293;DHT22;52402;52.670;6.750;2022-07-01T05:57:54;15.00;99.90
60293;DHT22;52402;52.670;6.750;2022-07-01T06:00:20;15.00;99.90
60293;DHT22;52402;52.670;6.750;2022-07-01T06:02:45;15.10;99.90
60293;DHT22;52402;52.670;6.750;2022-07-01T06:05:11;15.20;99.90
60293;DHT22;52402;52.670;6.750;2022-07-01T06:07:39;15.30;99.90
60293;DHT22;52402;52.670;6.750;2022-07-01T06:10:07;15.30;99.90
60293;DHT22;52402;52.670;6.750;2022-07-01T06:12:36;15.40;99.90
60293;DHT22;52402;52.670;6.750;2022-07-01T06:15:03;15.50;99.90
60293;DHT22;52402;52.670;6.750;2022-07-01T06:17:29;15.60;99.90
60293;DHT22;52402;52.670;6.750;2022-07-01T06:19:54;15.60;99.90
60293;DHT22;52402;52.670;6.750;2022-07-01T06:22:20;15.60;99.90
60293;DHT22;52402;52.670;6.750;2022-07-01T06:24:47;15.60;99.90
60293;DHT22;52402;52.670;6.750;2022-07-01T06:27:18;15.70;99.90
60293;DHT22;52402;52.670;6.750;2022-07-01T06:29:44;15.70;99.90
60293;DHT22;52402;52.670;6.750;2022-07-01T06:32:10;15.80;99.90
60293;DHT22;52402;52.670;6.750;2022-07-01T06:34:35;15.80;99.90
60293;DHT22;52402;52.670;6.750;2022-07-01T06:37:01;15.80;99.90
60293;DHT22;52402;52.670;6.750;2022-07-01T06:39:29;15.80;99.90
60293;DHT22;52402;52.670;6.750;2022-07-01T06:41:55;15.80;99.90
60293;DHT22;52402;52.670;6.750;2022-07-01T06:44:21;15.80;99.90
60293;DHT22;52402;52.670;6.750;2022-07-01T06:46:47;15.80;99.90
60293;DHT22;52402;52.670;6.750;2022-07-01T06:49:13;15.80;99.90
60293;DHT22;52402;52.670;6.750;2022-07-01T06:51:39;15.70;99.90
60293;DHT22;52402;52.670;6.750;2022-07-01T06:54:05;15.70;99.90
60293;DHT22;52402;52.670;6.750;2022-07-01T06:56:31;15.70;99.90
60293;DHT22;52402;52.670;6.750;2022-07-01T06:58:57;15.70;99.90
60293;DHT22;52402;52.670;6.750;2022-07-01T07:01:23;15.70;99.90
60293;DHT22;52402;52.670;6.750;2022-07-01T07:03:49;15.80;99.90
60293;DHT22;52402;52.670;6.750;2022-07-01T07:06:14;15.80;99.90
60293;DHT22;52402;52.670;6.750;2022-07-01T07:08:40;15.80;99.90
60293;DHT22;52402;52.670;6.750;2022-07-01T07:11:06;15.80;99.90
60293;DHT22;52402;52.670;6.750;2022-07-01T07:13:34;15.80;99.90
60293;DHT22;52402;52.670;6.750;2022-07-01T07:16:00;15.90;99.90
60293;DHT22;52402;52.670;6.750;2022-07-01T07:18:26;15.90;99.90
60293;DHT22;52402;52.670;6.750;2022-07-01T07:20:51;15.90;99.90
60293;DHT22;52402;52.670;6.750;2022-07-01T07:23:17;16.00;99.90
60293;DHT22;52402;52.670;6.750;2022-07-01T07:25:42;16.10;99.90
60293;DHT22;52402;52.670;6.750;2022-07-01T07:28:08;16.20;99.90
60293;DHT22;52402;52.670;6.750;2022-07-01T07:30:33;16.30;99.90
60293;DHT22;52402;52.670;6.750;2022-07-01T07:32:59;16.40;99.90
60293;DHT22;52402;52.670;6.750;2022-07-01T07:35:25;16.40;99.90
60293;DHT22;52402;52.670;6.750;2022-07-01T07:37:50;16.50;99.90
60293;DHT22;52402;52.670;6.750;2022-07-01T07:40:16;16.70;99.90
60293;DHT22;52402;52.670;6.750;2022-07-01T07:42:45;16.70;99.90
60293;DHT22;52402;52.670;6.750;2022-07-01T07:45:12;16.90;99.90
60293;DHT22;52402;52.670;6.750;2022-07-01T07:47:44;16.90;99.90
60293;DHT22;52402;52.670;6.750;2022-07-01T07:50:10;16.90;99.90
60293;DHT22;52402;52.670;6.750;2022-07-01T07:52:36;17.00;99.90
60293;DHT22;52402;52.670;6.750;2022-07-01T07:55:03;17.10;99.90
60293;DHT22;52402;52.670;6.750;2022-07-01T07:57:30;17.20;99.90
60293;DHT22;52402;52.670;6.750;2022-07-01T07:59:56;17.20;99.90
60293;DHT22;52402;52.670;6.750;2022-07-01T08:02:22;17.40;99.90
60293;DHT22;52402;52.670;6.750;2022-07-01T08:04:47;17.50;99.90
60293;DHT22;52402;52.670;6.750;2022-07-01T08:07:13;17.50;99.90
60293;DHT22;52402;52.670;6.750;2022-07-01T08:09:39;17.60;99.90
60293;DHT22;52402;52.670;6.750;2022-07-01T08:12:07;17.70;99.90
60293;DHT22;52402;52.670;6.750;2022-07-01T08:14:33;17.80;99.90
60293;DHT22;52402;52.670;6.750;2022-07-01T08:16:58;17.90;99.90
60293;DHT22;52402;52.670;6.750;2022-07-01T08:19:24;18.00;99.90
60293;DHT22;52402;52.670;6.750;2022-07-01T08:21:50;18.20;99.90
60293;DHT22;52402;52.670;6.750;2022-07-01T08:24:15;18.20;99.90
60293;DHT22;52402;52.670;6.750;2022-07-01T08:26:41;18.10;99.90
60293;DHT22;52402;52.670;6.750;2022-07-01T08:29:06;18.30;99.90
60293;DHT22;52402;52.670;6.750;2022-07-01T08:31:32;18.30;99.90
60293;DHT22;52402;52.670;6.750;2022-07-01T08:33:58;18.40;99.90
60293;DHT22;52402;52.670;6.750;2022-07-01T08:36:24;18.50;99.90
60293;DHT22;52402;52.670;6.750;2022-07-01T08:38:49;18.50;99.90
60293;DHT22;52402;52.670;6.750;2022-07-01T08:41:15;18.80;99.90
60293;DHT22;52402;52.670;6.750;2022-07-01T08:43:41;18.90;99.90
60293;DHT22;52402;52.670;6.750;2022-07-01T08:46:07;19.00;99.90
60293;DHT22;52402;52.670;6.750;2022-07-01T08:48:34;19.10;99.90
60293;DHT22;52402;52.670;6.750;2022-07-01T08:51:00;18.90;99.90
60293;DHT22;52402;52.670;6.750;2022-07-01T08:53:31;19.00;99.90
60293;DHT22;52402;52.670;6.750;2022-07-01T08:55:57;19.30;99.90
60293;DHT22;52402;52.670;6.750;2022-07-01T08:58:42;19.60;99.90
60293;DHT22;52402;52.670;6.750;2022-07-01T09:01:19;19.80;99.90
60293;DHT22;52402;52.670;6.750;2022-07-01T09:03:49;19.40;99.90
60293;DHT22;52402;52.670;6.750;2022-07-01T09:06:21;19.40;99.90
60293;DHT22;52402;52.670;6.750;2022-07-01T09:08:47;19.40;99.90
60293;DHT22;52402;52.670;6.750;2022-07-01T09:11:24;19.40;99.90
60293;DHT22;52402;52.670;6.750;2022-07-01T09:14:10;19.30;99.90
60293;DHT22;52402;52.670;6.750;2022-07-01T09:16:45;19.30;99.90
60293;DHT22;52402;52.670;6.750;2022-07-01T09:19:13;19.30;99.90
60293;DHT22;52402;52.670;6.750;2022-07-01T09:21:39;19.20;99.90
60293;DHT22;52402;52.670;6.750;2022-07-01T09:27:08;19.30;99.90
60293;DHT22;52402;52.670;6.750;2022-07-01T09:29:44;19.30;99.90
60293;DHT22;52402;52.670;6.750;2022-07-01T09:32:12;19.30;99.90
60293;DHT22;52402;52.670;6.750;2022-07-01T09:34:46;19.30;99.90
60293;DHT22;52402;52.670;6.750;2022-07-01T09:37:17;19.30;99.90
60293;DHT22;52402;52.670;6.750;2022-07-01T09:42:09;19.30;99.90
60293;DHT22;52402;52.670;6.750;2022-07-01T09:44:34;19.50;99.90
60293;DHT22;52402;52.670;6.750;2022-07-01T09:47:00;19.40;99.90
60293;DHT22;52402;52.670;6.750;2022-07-01T09:49:27;19.30;99.90
60293;DHT22;52402;52.670;6.750;2022-07-01T09:51:53;19.30;99.90
60293;DHT22;52402;52.670;6.750;2022-07-01T09:54:20;19.30;99.90
60293;DHT22;52402;52.670;6.750;2022-07-01T09:56:46;19.40;99.90
60293;DHT22;52402;52.670;6.750;2022-07-01T09:59:11;19.60;99.90
60293;DHT22;52402;52.670;6.750;2022-07-01T10:01:43;19.80;99.90
60293;DHT22;52402;52.670;6.750;2022-07-01T10:04:10;20.00;99.90
60293;DHT22;52402;52.670;6.750;2022-07-01T10:09:32;19.90;99.90
60293;DHT22;52402;52.670;6.750;2022-07-01T10:14:43;19.80;99.90
60293;DHT22;52402;52.670;6.750;2022-07-01T10:17:08;19.90;99.90
60293;DHT22;52402;52.670;6.750;2022-07-01T10:19:34;19.90;99.90
60293;DHT22;52402;52.670;6.750;2022-07-01T10:22:23;20.00;99.90
60293;DHT22;52402;52.670;6.750;2022-07-01T10:24:47;20.20;99.90
60293;DHT22;52402;52.670;6.750;2022-07-01T10:27:20;20.70;99.90
60293;DHT22;52402;52.670;6.750;2022-07-01T10:29:46;20.60;99.90
60293;DHT22;52402;52.670;6.750;2022-07-01T10:34:47;20.20;99.90
60293;DHT22;52402;52.670;6.750;2022-07-01T10:37:12;20.20;99.90
60293;DHT22;52402;52.670;6.750;2022-07-01T10:40:00;20.10;99.90
60293;DHT22;52402;52.670;6.750;2022-07-01T10:42:34;20.20;99.90
60293;DHT22;52402;52.670;6.750;2022-07-01T10:45:13;20.30;99.90
60293;DHT22;52402;52.670;6.750;2022-07-01T10:47:45;20.60;99.90
60293;DHT22;52402;52.670;6.750;2022-07-01T10:50:12;21.00;99.90
60293;DHT22;52402;52.670;6.750;2022-07-01T10:52:40;21.30;99.90
60293;DHT22;52402;52.670;6.750;2022-07-01T10:55:36;21.60;99.90
60293;DHT22;52402;52.670;6.750;2022-07-01T10:58:02;21.70;99.90
60293;DHT22;52402;52.670;6.750;2022-07-01T11:00:29;21.90;99.90
60293;DHT22;52402;52.670;6.750;2022-07-01T11:03:08;22.10;99.90
60293;DHT22;52402;52.670;6.750;2022-07-01T11:05:34;22.20;99.90
60293;DHT22;52402;52.670;6.750;2022-07-01T11:08:03;22.30;99.90
60293;DHT22;52402;52.670;6.750;2022-07-01T11:10:29;22.40;99.90
60293;DHT22;52402;52.670;6.750;2022-07-01T11:12:55;22.70;99.90
60293;DHT22;52402;52.670;6.750;2022-07-01T11:15:21;22.80;99.90
60293;DHT22;52402;52.670;6.750;2022-07-01T11:17:50;22.80;99.80
60293;DHT22;52402;52.670;6.750;2022-07-01T11:20:16;23.00;99.10
60293;DHT22;52402;52.670;6.750;2022-07-01T11:22:45;23.00;98.70
60293;DHT22;52402;52.670;6.750;2022-07-01T11:25:11;23.00;99.10
60293;DHT22;52402;52.670;6.750;2022-07-01T11:27:38;23.00;99.40
60293;DHT22;52402;52.670;6.750;2022-07-01T11:30:08;22.90;98.80
60293;DHT22;52402;52.670;6.750;2022-07-01T11:32:40;23.20;99.00
60293;DHT22;52402;52.670;6.750;2022-07-01T11:35:14;23.60;99.90
60293;DHT22;52402;52.670;6.750;2022-07-01T11:38:06;23.50;98.80
60293;DHT22;52402;52.670;6.750;2022-07-01T11:40:50;23.60;98.10
60293;DHT22;52402;52.670;6.750;2022-07-01T11:43:24;24.00;97.50
60293;DHT22;52402;52.670;6.750;2022-07-01T11:45:50;24.10;96.60
60293;DHT22;52402;52.670;6.750;2022-07-01T11:48:43;23.90;96.60
60293;DHT22;52402;52.670;6.750;2022-07-01T11:51:14;23.60;97.10
60293;DHT22;52402;52.670;6.750;2022-07-01T11:53:45;23.50;97.80
60293;DHT22;52402;52.670;6.750;2022-07-01T11:56:12;23.30;98.60
60293;DHT22;52402;52.670;6.750;2022-07-01T12:01:10;22.80;97.80
60293;DHT22;52402;52.670;6.750;2022-07-01T12:03:36;22.40;98.00
60293;DHT22;52402;52.670;6.750;2022-07-01T12:06:04;22.40;98.90
60293;DHT22;52402;52.670;6.750;2022-07-01T12:08:30;22.30;98.80
60293;DHT22;52402;52.670;6.750;2022-07-01T12:10:55;22.30;99.00
60293;DHT22;52402;52.670;6.750;2022-07-01T12:13:26;22.60;98.80
60293;DHT22;52402;52.670;6.750;2022-07-01T12:15:52;22.70;98.30
60293;DHT22;52402;52.670;6.750;2022-07-01T12:18:19;22.80;97.20
60293;DHT22;52402;52.670;6.750;2022-07-01T12:20:49;23.10;96.70
60293;DHT22;52402;52.670;6.750;2022-07-01T12:23:15;23.40;96.50
60293;DHT22;52402;52.670;6.750;2022-07-01T12:25:50;23.70;96.70
60293;DHT22;52402;52.670;6.750;2022-07-01T12:28:33;24.00;96.60
60293;DHT22;52402;52.670;6.750;2022-07-01T12:31:09;24.40;95.10
60293;DHT22;52402;52.670;6.750;2022-07-01T12:33:39;24.50;94.90
60293;DHT22;52402;52.670;6.750;2022-07-01T12:36:06;24.10;95.40
60293;DHT22;52402;52.670;6.750;2022-07-01T12:38:33;23.70;95.50
60293;DHT22;52402;52.670;6.750;2022-07-01T12:40:59;23.60;95.40
60293;DHT22;52402;52.670;6.750;2022-07-01T12:43:30;23.90;95.50
60293;DHT22;52402;52.670;6.750;2022-07-01T12:46:01;24.30;95.20
60293;DHT22;52402;52.670;6.750;2022-07-01T12:48:29;24.40;93.90
60293;DHT22;52402;52.670;6.750;2022-07-01T12:51:14;24.10;94.70
60293;DHT22;52402;52.670;6.750;2022-07-01T12:53:41;23.90;94.10
60293;DHT22;52402;52.670;6.750;2022-07-01T12:56:07;23.80;93.80
60293;DHT22;52402;52.670;6.750;2022-07-01T12:58:32;23.60;94.50
60293;DHT22;52402;52.670;6.750;2022-07-01T13:00:58;23.40;94.70
60293;DHT22;52402;52.670;6.750;2022-07-01T13:03:26;23.00;94.80
60293;DHT22;52402;52.670;6.750;2022-07-01T13:05:54;22.80;95.40
60293;DHT22;52402;52.670;6.750;2022-07-01T13:08:20;22.60;96.10
60293;DHT22;52402;52.670;6.750;2022-07-01T13:10:47;22.30;96.50
60293;DHT22;52402;52.670;6.750;2022-07-01T13:13:14;22.20;97.30
60293;DHT22;52402;52.670;6.750;2022-07-01T13:15:40;22.00;97.10
60293;DHT22;52402;52.670;6.750;2022-07-01T13:18:06;22.00;96.30
60293;DHT22;52402;52.670;6.750;2022-07-01T13:20:32;21.90;97.00
60293;DHT22;52402;52.670;6.750;2022-07-01T13:22:58;22.00;97.30
60293;DHT22;52402;52.670;6.750;2022-07-01T13:25:24;21.90;97.80
60293;DHT22;52402;52.670;6.750;2022-07-01T13:27:50;22.10;97.70
60293;DHT22;52402;52.670;6.750;2022-07-01T13:30:17;22.50;96.70
60293;DHT22;52402;52.670;6.750;2022-07-01T13:32:43;23.20;96.50
60293;DHT22;52402;52.670;6.750;2022-07-01T13:35:10;23.50;95.90
60293;DHT22;52402;52.670;6.750;2022-07-01T13:37:36;23.40;96.60
60293;DHT22;52402;52.670;6.750;2022-07-01T13:40:02;23.20;95.50
60293;DHT22;52402;52.670;6.750;2022-07-01T13:42:29;23.00;95.90
60293;DHT22;52402;52.670;6.750;2022-07-01T13:44:55;23.10;96.10
60293;DHT22;52402;52.670;6.750;2022-07-01T13:47:22;23.40;96.20
60293;DHT22;52402;52.670;6.750;2022-07-01T13:49:48;23.90;95.70
60293;DHT22;52402;52.670;6.750;2022-07-01T13:52:13;24.20;96.10
60293;DHT22;52402;52.670;6.750;2022-07-01T13:54:39;24.20;93.40
60293;DHT22;52402;52.670;6.750;2022-07-01T13:57:05;24.40;93.30
60293;DHT22;52402;52.670;6.750;2022-07-01T13:59:31;23.80;92.60
60293;DHT22;52402;52.670;6.750;2022-07-01T14:01:57;23.50;92.80
60293;DHT22;52402;52.670;6.750;2022-07-01T14:04:23;23.90;93.80
60293;DHT22;52402;52.670;6.750;2022-07-01T14:06:49;24.10;92.10
60293;DHT22;52402;52.670;6.750;2022-07-01T14:09:14;23.60;91.30
60293;DHT22;52402;52.670;6.750;2022-07-01T14:11:40;23.90;93.40
60293;DHT22;52402;52.670;6.750;2022-07-01T14:14:06;24.10;91.90
60293;DHT22;52402;52.670;6.750;2022-07-01T14:16:32;23.90;92.10
60293;DHT22;52402;52.670;6.750;2022-07-01T14:18:58;23.70;92.00
60293;DHT22;52402;52.670;6.750;2022-07-01T14:21:24;23.80;92.70
60293;DHT22;52402;52.670;6.750;2022-07-01T14:23:50;24.00;92.30
60293;DHT22;52402;52.670;6.750;2022-07-01T14:26:16;24.00;91.20
60293;DHT22;52402;52.670;6.750;2022-07-01T14:28:42;24.40;91.20
60293;DHT22;52402;52.670;6.750;2022-07-01T14:31:10;24.10;90.00
60293;DHT22;52402;52.670;6.750;2022-07-01T14:33:37;23.80;90.50
60293;DHT22;52402;52.670;6.750;2022-07-01T14:36:03;23.60;89.50
60293;DHT22;52402;52.670;6.750;2022-07-01T14:38:29;23.50;90.90
60293;DHT22;52402;52.670;6.750;2022-07-01T14:40:55;23.30;91.20
60293;DHT22;52402;52.670;6.750;2022-07-01T14:43:23;23.20;91.70
60293;DHT22;52402;52.670;6.750;2022-07-01T14:45:49;23.20;91.60
60293;DHT22;52402;52.670;6.750;2022-07-01T14:48:14;23.00;92.60
60293;DHT22;52402;52.670;6.750;2022-07-01T14:50:41;23.00;92.40
60293;DHT22;52402;52.670;6.750;2022-07-01T14:53:07;22.60;92.50
60293;DHT22;52402;52.670;6.750;2022-07-01T14:55:33;22.80;92.30
60293;DHT22;52402;52.670;6.750;2022-07-01T14:57:59;22.90;92.60
60293;DHT22;52402;52.670;6.750;2022-07-01T15:00:25;22.90;92.20
60293;DHT22;52402;52.670;6.750;2022-07-01T15:02:51;23.00;93.40
60293;DHT22;52402;52.670;6.750;2022-07-01T15:05:17;23.30;93.40
60293;DHT22;52402;52.670;6.750;2022-07-01T15:07:43;23.80;92.90
60293;DHT22;52402;52.670;6.750;2022-07-01T15:10:09;24.20;90.90
60293;DHT22;52402;52.670;6.750;2022-07-01T15:12:34;24.60;91.10
60293;DHT22;52402;52.670;6.750;2022-07-01T15:15:00;25.00;89.40
60293;DHT22;52402;52.670;6.750;2022-07-01T15:17:26;25.30;89.50
60293;DHT22;52402;52.670;6.750;2022-07-01T15:19:52;25.70;85.10
60293;DHT22;52402;52.670;6.750;2022-07-01T15:22:18;25.80;85.90
60293;DHT22;52402;52.670;6.750;2022-07-01T15:24:44;26.00;85.10
60293;DHT22;52402;52.670;6.750;2022-07-01T15:27:10;25.70;83.20
60293;DHT22;52402;52.670;6.750;2022-07-01T15:29:37;25.20;85.90
60293;DHT22;52402;52.670;6.750;2022-07-01T15:32:03;25.00;83.40
60293;DHT22;52402;52.670;6.750;2022-07-01T15:34:29;24.60;82.10
60293;DHT22;52402;52.670;6.750;2022-07-01T15:36:54;24.40;83.60
60293;DHT22;52402;52.670;6.750;2022-07-01T15:39:20;24.20;85.80
60293;DHT22;52402;52.670;6.750;2022-07-01T15:41:46;24.10;87.60
60293;DHT22;52402;52.670;6.750;2022-07-01T15:44:12;24.40;88.70
60293;DHT22;52402;52.670;6.750;2022-07-01T15:46:39;24.20;89.30
60293;DHT22;52402;52.670;6.750;2022-07-01T15:49:05;24.10;88.10